sensor_id;sensor_type;location;lat;lon;timestamp;pressure;altitude;pressure_sealevel;temperature
45565;BMP280;31280;40.408;17.282;2022-09-23T00:00:34;101560.03;;;18.71
45565;BMP280;31280;40.408;17.282;2022-09-23T00:03:00;101557.44;;;18.67
45565;BMP280;31280;40.408;17.282;2022-09-23T00:05:26;101557.53;;;18.55
45565;BMP280;31280;40.408;17.282;2022-09-23T00:07:52;101538.44;;;18.55
45565;BMP280;31280;40.408;17.282;2022-09-23T00:10:20;101553.59;;;18.56
45565;BMP280;31280;40.408;17.282;2022-09-23T00:12:46;101545.47;;;18.44
45565;BMP280;31280;40.408;17.282;2022-09-23T00:15:12;101543.06;;;18.46
45565;BMP280;31280;40.408;17.282;2022-09-23T00:17:38;101543.31;;;18.60
45565;BMP280;31280;40.408;17.282;2022-09-23T00:20:06;101541.91;;;18.56
45565;BMP280;31280;40.408;17.282;2022-09-23T00:22:35;101552.06;;;18.55
45565;BMP280;31280;40.408;17.282;2022-09-23T00:25:05;101544.13;;;18.48
45565;BMP280;31280;40.408;17.282;2022-09-23T00:27:31;101522.53;;;18.33
45565;BMP280;31280;40.408;17.282;2022-09-23T00:30:01;101536.56;;;18.43
45565;BMP280;31280;40.408;17.282;2022-09-23T00:32:27;101532.88;;;18.38
45565;BMP280;31280;40.408;17.282;2022-09-23T00:34:53;101534.81;;;18.37
45565;BMP280;31280;40.408;17.282;2022-09-23T00:37:20;101524.41;;;18.44
45565;BMP280;31280;40.408;17.282;2022-09-23T00:39:46;101520.50;;;18.45
45565;BMP280;31280;40.408;17.282;2022-09-23T00:42:15;101511.34;;;18.40
45565;BMP280;31280;40.408;17.282;2022-09-23T00:44:51;101523.72;;;18.53
45565;BMP280;31280;40.408;17.282;2022-09-23T00:50:33;101517.63;;;18.49
45565;BMP280;31280;40.408;17.282;2022-09-23T00:53:05;101495.88;;;18.37
45565;BMP280;31280;40.408;17.282;2022-09-23T00:55:42;101509.38;;;18.40
45565;BMP280;31280;40.408;17.282;2022-09-23T00:58:11;101504.38;;;18.39
45565;BMP280;31280;40.408;17.282;2022-09-23T01:00:40;101496.97;;;18.39
45565;BMP280;31280;40.408;17.282;2022-09-23T01:03:07;101511.38;;;18.48
45565;BMP280;31280;40.408;17.282;2022-09-23T01:05:34;101520.50;;;18.45
45565;BMP280;31280;40.408;17.282;2022-09-23T01:08:02;101512.44;;;18.42
45565;BMP280;31280;40.408;17.282;2022-09-23T01:10:35;101514.72;;;18.43
45565;BMP280;31280;40.408;17.282;2022-09-23T01:13:24;101511.06;;;18.38
45565;BMP280;31280;40.408;17.282;2022-09-23T01:22:13;101509.44;;;18.28
45565;BMP280;31280;40.408;17.282;2022-09-23T01:24:56;101505.28;;;18.36
45565;BMP280;31280;40.408;17.282;2022-09-23T01:35:14;101509.16;;;18.26
45565;BMP280;31280;40.408;17.282;2022-09-23T01:37:58;101505.78;;;18.22
45565;BMP280;31280;40.408;17.282;2022-09-23T01:40:33;101506.78;;;18.37
45565;BMP280;31280;40.408;17.282;2022-09-23T01:43:07;101500.84;;;18.29
45565;BMP280;31280;40.408;17.282;2022-09-23T01:45:47;101504.16;;;18.24
45565;BMP280;31280;40.408;17.282;2022-09-23T01:51:13;101500.88;;;18.08
45565;BMP280;31280;40.408;17.282;2022-09-23T01:54:16;101503.00;;;18.13
45565;BMP280;31280;40.408;17.282;2022-09-23T01:56:46;101499.97;;;18.11
45565;BMP280;31280;40.408;17.282;2022-09-23T01:59:23;101493.59;;;18.14
45565;BMP280;31280;40.408;17.282;2022-09-23T02:05:16;101492.53;;;17.90
45565;BMP280;31280;40.408;17.282;2022-09-23T02:07:51;101491.97;;;17.74
45565;BMP280;31280;40.408;17.282;2022-09-23T02:10:26;101492.38;;;17.73
45565;BMP280;31280;40.408;17.282;2022-09-23T02:12:58;101493.50;;;17.63
45565;BMP280;31280;40.408;17.282;2022-09-23T02:15:31;101488.06;;;17.75
45565;BMP280;31280;40.408;17.282;2022-09-23T02:18:13;101484.13;;;17.76
45565;BMP280;31280;40.408;17.282;2022-09-23T02:20:39;101467.38;;;17.65
45565;BMP280;31280;40.408;17.282;2022-09-23T02:23:14;101471.16;;;17.68
45565;BMP280;31280;40.408;17.282;2022-09-23T02:26:01;101487.00;;;17.60
45565;BMP280;31280;40.408;17.282;2022-09-23T02:31:14;101483.06;;;17.61
45565;BMP280;31280;40.408;17.282;2022-09-23T02:33:45;101490.44;;;17.73
45565;BMP280;31280;40.408;17.282;2022-09-23T02:36:26;101486.50;;;17.74
45565;BMP280;31280;40.408;17.282;2022-09-23T02:38:58;101486.88;;;17.64
45565;BMP280;31280;40.408;17.282;2022-09-23T02:44:08;101475.00;;;17.58
45565;BMP280;31280;40.408;17.282;2022-09-23T02:46:35;101479.03;;;17.66
45565;BMP280;31280;40.408;17.282;2022-09-23T02:49:15;101488.00;;;17.54
45565;BMP280;31280;40.408;17.282;2022-09-23T02:51:43;101491.69;;;17.60
45565;BMP280;31280;40.408;17.282;2022-09-23T02:54:13;101488.25;;;17.47
45565;BMP280;31280;40.408;17.282;2022-09-23T02:56:40;101486.38;;;17.44
45565;BMP280;31280;40.408;17.282;2022-09-23T02:59:08;101483.66;;;17.44
45565;BMP280;31280;40.408;17.282;2022-09-23T03:05:17;101473.03;;;17.37
45565;BMP280;31280;40.408;17.282;2022-09-23T03:16:05;101485.31;;;17.42
45565;BMP280;31280;40.408;17.282;2022-09-23T03:18:41;101486.50;;;17.53
45565;BMP280;31280;40.408;17.282;2022-09-23T03:21:16;101483.50;;;17.39
45565;BMP280;31280;40.408;17.282;2022-09-23T03:23:44;101481.53;;;17.39
45565;BMP280;31280;40.408;17.282;2022-09-23T03:26:27;101474.75;;;17.44
45565;BMP280;31280;40.408;17.282;2022-09-23T03:28:53;101471.34;;;17.52
45565;BMP280;31280;40.408;17.282;2022-09-23T03:31:19;101461.50;;;17.55
45565;BMP280;31280;40.408;17.282;2022-09-23T03:33:49;101457.44;;;17.38
45565;BMP280;31280;40.408;17.282;2022-09-23T03:36:22;101455.91;;;17.37
45565;BMP280;31280;40.408;17.282;2022-09-23T03:39:12;101461.75;;;17.48
45565;BMP280;31280;40.408;17.282;2022-09-23T03:41:45;101470.19;;;17.41
45565;BMP280;31280;40.408;17.282;2022-09-23T03:44:18;101467.91;;;17.39
45565;BMP280;31280;40.408;17.282;2022-09-23T03:46:45;101457.34;;;17.29
45565;BMP280;31280;40.408;17.282;2022-09-23T03:49:15;101464.50;;;17.35
45565;BMP280;31280;40.408;17.282;2022-09-23T03:51:41;101459.63;;;17.43
45565;BMP280;31280;40.408;17.282;2022-09-23T03:54:07;101453.63;;;17.35
45565;BMP280;31280;40.408;17.282;2022-09-23T03:56:34;101450.59;;;17.33
45565;BMP280;31280;40.408;17.282;2022-09-23T03:59:00;101460.28;;;17.34
45565;BMP280;31280;40.408;17.282;2022-09-23T04:01:26;101461.84;;;17.44
45565;BMP280;31280;40.408;17.282;2022-09-23T04:03:52;101462.00;;;17.41
45565;BMP280;31280;40.408;17.282;2022-09-23T04:06:19;101457.94;;;17.45
45565;BMP280;31280;40.408;17.282;2022-09-23T04:08:45;101457.31;;;17.41
45565;BMP280;31280;40.408;17.282;2022-09-23T04:11:11;101448.53;;;17.25
45565;BMP280;31280;40.408;17.282;2022-09-23T04:13:36;101451.72;;;17.24
45565;BMP280;31280;40.408;17.282;2022-09-23T04:16:03;101453.59;;;17.14
45565;BMP280;31280;40.408;17.282;2022-09-23T04:18:28;101460.53;;;17.28
45565;BMP280;31280;40.408;17.282;2022-09-23T04:20:58;101452.69;;;17.29
45565;BMP280;31280;40.408;17.282;2022-09-23T04:23:27;101462.16;;;17.25
45565;BMP280;31280;40.408;17.282;2022-09-23T04:25:53;101461.75;;;17.14
45565;BMP280;31280;40.408;17.282;2022-09-23T04:28:20;101456.63;;;17.16
45565;BMP280;31280;40.408;17.282;2022-09-23T04:30:46;101436.69;;;17.07
45565;BMP280;31280;40.408;17.282;2022-09-23T04:33:14;101454.06;;;17.22
45565;BMP280;31280;40.408;17.282;2022-09-23T04:35:40;101464.59;;;17.11
45565;BMP280;31280;40.408;17.282;2022-09-23T04:38:10;101462.94;;;17.13
45565;BMP280;31280;40.408;17.282;2022-09-23T04:40:36;101457.28;;;17.20
45565;BMP280;31280;40.408;17.282;2022-09-23T04:43:02;101466.75;;;17.16
45565;BMP280;31280;40.408;17.282;2022-09-23T04:45:28;101461.81;;;17.23
45565;BMP280;31280;40.408;17.282;2022-09-23T04:47:55;101465.63;;;17.26
45565;BMP280;31280;40.408;17.282;2022-09-23T04:50:24;101465.50;;;17.29
45565;BMP280;31280;40.408;17.282;2022-09-23T04:52:51;101465.81;;;17.43
45565;BMP280;31280;40.408;17.282;2022-09-23T04:55:17;101465.81;;;17.43
45565;BMP280;31280;40.408;17.282;2022-09-23T04:57:43;101467.59;;;17.58
45565;BMP280;31280;40.408;17.282;2022-09-23T05:00:10;101479.03;;;17.66
45565;BMP280;31280;40.408;17.282;2022-09-23T05:02:44;101477.81;;;17.67
45565;BMP280;31280;40.408;17.282;2022-09-23T05:05:11;101473.28;;;17.85
45565;BMP280;31280;40.408;17.282;2022-09-23T05:07:37;101474.75;;;17.98
45565;BMP280;31280;40.408;17.282;2022-09-23T05:10:03;101481.44;;;18.06
45565;BMP280;31280;40.408;17.282;2022-09-23T05:12:29;101461.19;;;18.07
45565;BMP280;31280;40.408;17.282;2022-09-23T05:14:55;101479.16;;;18.26
45565;BMP280;31280;40.408;17.282;2022-09-23T05:17:21;101476.47;;;18.35
45565;BMP280;31280;40.408;17.282;2022-09-23T05:19:47;101478.59;;;18.40
45565;BMP280;31280;40.408;17.282;2022-09-23T05:22:12;101475.13;;;18.39
45565;BMP280;31280;40.408;17.282;2022-09-23T05:24:38;101474.53;;;18.44
45565;BMP280;31280;40.408;17.282;2022-09-23T05:27:04;101476.03;;;18.36
45565;BMP280;31280;40.408;17.282;2022-09-23T05:29:34;101471.31;;;18.37
45565;BMP280;31280;40.408;17.282;2022-09-23T05:32:00;101477.19;;;18.26
45565;BMP280;31280;40.408;17.282;2022-09-23T05:34:26;101466.22;;;17.96
45565;BMP280;31280;40.408;17.282;2022-09-23T05:36:52;101480.00;;;17.93
45565;BMP280;31280;40.408;17.282;2022-09-23T05:39:18;101482.00;;;17.80
45565;BMP280;31280;40.408;17.282;2022-09-23T05:41:43;101466.78;;;17.70
45565;BMP280;31280;40.408;17.282;2022-09-23T05:44:10;101482.22;;;17.85
45565;BMP280;31280;40.408;17.282;2022-09-23T05:46:36;101484.63;;;17.84
45565;BMP280;31280;40.408;17.282;2022-09-23T05:49:03;101482.53;;;17.87
45565;BMP280;31280;40.408;17.282;2022-09-23T05:51:31;101484.50;;;17.87
45565;BMP280;31280;40.408;17.282;2022-09-23T05:53:59;101473.94;;;17.77
45565;BMP280;31280;40.408;17.282;2022-09-23T05:56:27;101485.56;;;17.89
45565;BMP280;31280;40.408;17.282;2022-09-23T05:58:55;101486.31;;;17.90
45565;BMP280;31280;40.408;17.282;2022-09-23T06:01:26;101488.19;;;17.93
45565;BMP280;31280;40.408;17.282;2022-09-23T06:03:54;101473.78;;;17.92
45565;BMP280;31280;40.408;17.282;2022-09-23T06:06:40;101497.19;;;18.02
45565;BMP280;31280;40.408;17.282;2022-09-23T06:09:10;101497.38;;;18.08
45565;BMP280;31280;40.408;17.282;2022-09-23T06:11:38;101487.66;;;18.07
45565;BMP280;31280;40.408;17.282;2022-09-23T06:14:04;101498.50;;;18.19
45565;BMP280;31280;40.408;17.282;2022-09-23T06:16:34;101511.56;;;18.24
45565;BMP280;31280;40.408;17.282;2022-09-23T06:19:01;101516.75;;;18.31
45565;BMP280;31280;40.408;17.282;2022-09-23T06:21:32;101508.94;;;18.41
45565;BMP280;31280;40.408;17.282;2022-09-23T06:23:58;101523.91;;;18.37
45565;BMP280;31280;40.408;17.282;2022-09-23T06:26:25;101521.25;;;18.46
45565;BMP280;31280;40.408;17.282;2022-09-23T06:28:51;101527.81;;;18.57
45565;BMP280;31280;40.408;17.282;2022-09-23T06:31:16;101527.09;;;18.57
45565;BMP280;31280;40.408;17.282;2022-09-23T06:33:44;101534.22;;;18.63
45565;BMP280;31280;40.408;17.282;2022-09-23T06:36:11;101536.69;;;18.70
45565;BMP280;31280;40.408;17.282;2022-09-23T06:38:41;101527.78;;;18.78
45565;BMP280;31280;40.408;17.282;2022-09-23T06:41:10;101523.22;;;18.84
45565;BMP280;31280;40.408;17.282;2022-09-23T06:43:36;101545.59;;;19.00
45565;BMP280;31280;40.408;17.282;2022-09-23T06:46:04;101530.00;;;19.10
45565;BMP280;31280;40.408;17.282;2022-09-23T06:48:30;101526.53;;;19.18
45565;BMP280;31280;40.408;17.282;2022-09-23T06:51:01;101537.06;;;19.46
45565;BMP280;31280;40.408;17.282;2022-09-23T06:53:28;101526.88;;;19.47
45565;BMP280;31280;40.408;17.282;2022-09-23T06:56:08;101535.81;;;19.47
45565;BMP280;31280;40.408;17.282;2022-09-23T06:58:36;101540.69;;;19.52
45565;BMP280;31280;40.408;17.282;2022-09-23T07:01:11;101547.84;;;19.76
45565;BMP280;31280;40.408;17.282;2022-09-23T07:03:38;101556.38;;;19.96
45565;BMP280;31280;40.408;17.282;2022-09-23T07:06:04;101536.47;;;19.86
45565;BMP280;31280;40.408;17.282;2022-09-23T07:08:31;101554.53;;;19.93
45565;BMP280;31280;40.408;17.282;2022-09-23T07:11:01;101553.31;;;19.58
45565;BMP280;31280;40.408;17.282;2022-09-23T07:13:28;101548.75;;;19.55
45565;BMP280;31280;40.408;17.282;2022-09-23T07:15:56;101552.72;;;19.54
45565;BMP280;31280;40.408;17.282;2022-09-23T07:18:24;101558.16;;;19.37
45565;BMP280;31280;40.408;17.282;2022-09-23T07:20:51;101541.44;;;19.44
45565;BMP280;31280;40.408;17.282;2022-09-23T07:23:18;101560.75;;;19.49
45565;BMP280;31280;40.408;17.282;2022-09-23T07:25:44;101557.72;;;19.74
45565;BMP280;31280;40.408;17.282;2022-09-23T07:28:15;101562.75;;;19.84
45565;BMP280;31280;40.408;17.282;2022-09-23T07:30:42;101563.50;;;19.93
45565;BMP280;31280;40.408;17.282;2022-09-23T07:33:08;101568.53;;;20.04
45565;BMP280;31280;40.408;17.282;2022-09-23T07:35:38;101571.25;;;20.04
45565;BMP280;31280;40.408;17.282;2022-09-23T07:38:07;101576.72;;;19.95
45565;BMP280;31280;40.408;17.282;2022-09-23T07:40:34;101586.16;;;19.94
45565;BMP280;31280;40.408;17.282;2022-09-23T07:43:00;101585.22;;;20.14
45565;BMP280;31280;40.408;17.282;2022-09-23T07:45:26;101569.66;;;20.29
45565;BMP280;31280;40.408;17.282;2022-09-23T07:47:54;101573.34;;;20.26
45565;BMP280;31280;40.408;17.282;2022-09-23T07:50:19;101588.72;;;20.24
45565;BMP280;31280;40.408;17.282;2022-09-23T07:52:47;101591.41;;;20.32
45565;BMP280;31280;40.408;17.282;2022-09-23T07:55:17;101595.41;;;20.32
45565;BMP280;31280;40.408;17.282;2022-09-23T07:57:44;101580.31;;;20.45
45565;BMP280;31280;40.408;17.282;2022-09-23T08:00:12;101596.44;;;20.43
45565;BMP280;31280;40.408;17.282;2022-09-23T08:02:41;101603.88;;;20.51
45565;BMP280;31280;40.408;17.282;2022-09-23T08:05:07;101616.94;;;20.56
45565;BMP280;31280;40.408;17.282;2022-09-23T08:07:33;101614.34;;;20.53
45565;BMP280;31280;40.408;17.282;2022-09-23T08:10:00;101607.03;;;20.50
45565;BMP280;31280;40.408;17.282;2022-09-23T08:12:27;101613.41;;;20.64
45565;BMP280;31280;40.408;17.282;2022-09-23T08:14:56;101614.19;;;20.97
45565;BMP280;31280;40.408;17.282;2022-09-23T08:17:24;101616.59;;;21.04
45565;BMP280;31280;40.408;17.282;2022-09-23T08:19:50;101611.88;;;21.04
45565;BMP280;31280;40.408;17.282;2022-09-23T08:22:16;101618.09;;;21.13
45565;BMP280;31280;40.408;17.282;2022-09-23T08:24:42;101615.03;;;21.12
45565;BMP280;31280;40.408;17.282;2022-09-23T08:27:08;101609.13;;;21.36
45565;BMP280;31280;40.408;17.282;2022-09-23T08:29:35;101605.97;;;21.52
45565;BMP280;31280;40.408;17.282;2022-09-23T08:32:01;101602.78;;;21.67
45565;BMP280;31280;40.408;17.282;2022-09-23T08:34:27;101608.25;;;21.67
45565;BMP280;31280;40.408;17.282;2022-09-23T08:36:53;101608.06;;;21.57
45565;BMP280;31280;40.408;17.282;2022-09-23T08:39:20;101601.56;;;21.68
45565;BMP280;31280;40.408;17.282;2022-09-23T08:42:05;101602.97;;;21.64
45565;BMP280;31280;40.408;17.282;2022-09-23T08:44:51;101610.97;;;21.76
45565;BMP280;31280;40.408;17.282;2022-09-23T08:47:22;101610.69;;;21.74
45565;BMP280;31280;40.408;17.282;2022-09-23T08:50:19;101606.38;;;21.59
45565;BMP280;31280;40.408;17.282;2022-09-23T08:55:37;101596.97;;;21.74
45565;BMP280;31280;40.408;17.282;2022-09-23T08:58:23;101591.56;;;21.94
45565;BMP280;31280;40.408;17.282;2022-09-23T09:03:35;101597.38;;;22.24
45565;BMP280;31280;40.408;17.282;2022-09-23T09:06:03;101573.28;;;22.28
45565;BMP280;31280;40.408;17.282;2022-09-23T09:08:34;101581.47;;;22.57
45565;BMP280;31280;40.408;17.282;2022-09-23T09:11:02;101577.56;;;22.63
45565;BMP280;31280;40.408;17.282;2022-09-23T09:13:29;101583.94;;;22.89
45565;BMP280;31280;40.408;17.282;2022-09-23T09:16:16;101604.97;;;23.25
45565;BMP280;31280;40.408;17.282;2022-09-23T09:18:55;101605.03;;;23.31
45565;BMP280;31280;40.408;17.282;2022-09-23T09:21:32;101590.66;;;23.41
45565;BMP280;31280;40.408;17.282;2022-09-23T09:24:07;101607.13;;;23.80
45565;BMP280;31280;40.408;17.282;2022-09-23T09:26:40;101605.31;;;23.77
45565;BMP280;31280;40.408;17.282;2022-09-23T09:29:32;101599.25;;;23.49
45565;BMP280;31280;40.408;17.282;2022-09-23T09:34:48;101593.97;;;23.45
45565;BMP280;31280;40.408;17.282;2022-09-23T09:37:30;101601.97;;;23.09
45565;BMP280;31280;40.408;17.282;2022-09-23T09:39:58;101597.72;;;22.74
45565;BMP280;31280;40.408;17.282;2022-09-23T09:42:36;101613.13;;;22.38
45565;BMP280;31280;40.408;17.282;2022-09-23T09:45:14;101601.00;;;22.30
45565;BMP280;31280;40.408;17.282;2022-09-23T09:50:17;101607.16;;;22.25
45565;BMP280;31280;40.408;17.282;2022-09-23T09:52:46;101611.31;;;22.35
45565;BMP280;31280;40.408;17.282;2022-09-23T09:57:59;101618.22;;;22.17
45565;BMP280;31280;40.408;17.282;2022-09-23T10:02:57;101624.38;;;22.69
45565;BMP280;31280;40.408;17.282;2022-09-23T10:05:50;101617.78;;;22.80
45565;BMP280;31280;40.408;17.282;2022-09-23T10:08:31;101620.66;;;22.86
45565;BMP280;31280;40.408;17.282;2022-09-23T10:11:04;101619.47;;;22.92
45565;BMP280;31280;40.408;17.282;2022-09-23T10:13:35;101632.13;;;23.18
45565;BMP280;31280;40.408;17.282;2022-09-23T10:16:03;101634.94;;;23.24
45565;BMP280;31280;40.408;17.282;2022-09-23T10:18:38;101629.16;;;23.41
45565;BMP280;31280;40.408;17.282;2022-09-23T10:21:13;101625.31;;;23.33
45565;BMP280;31280;40.408;17.282;2022-09-23T10:23:42;101615.16;;;23.39
45565;BMP280;31280;40.408;17.282;2022-09-23T10:26:10;101623.81;;;23.52
45565;BMP280;31280;40.408;17.282;2022-09-23T10:28:48;101599.25;;;23.49
45565;BMP280;31280;40.408;17.282;2022-09-23T10:31:17;101617.72;;;23.68
45565;BMP280;31280;40.408;17.282;2022-09-23T10:34:00;101622.91;;;23.80
45565;BMP280;31280;40.408;17.282;2022-09-23T10:36:29;101623.22;;;23.87
45565;BMP280;31280;40.408;17.282;2022-09-23T10:38:58;101621.09;;;24.02
45565;BMP280;31280;40.408;17.282;2022-09-23T10:42:03;101613.63;;;24.28
45565;BMP280;31280;40.408;17.282;2022-09-23T10:45:25;101621.66;;;24.67
45565;BMP280;31280;40.408;17.282;2022-09-23T10:48:22;101627.53;;;24.79
45565;BMP280;31280;40.408;17.282;2022-09-23T10:50:52;101629.97;;;24.72
45565;BMP280;31280;40.408;17.282;2022-09-23T10:53:51;101622.44;;;24.67
45565;BMP280;31280;40.408;17.282;2022-09-23T10:56:39;101622.25;;;24.46
45565;BMP280;31280;40.408;17.282;2022-09-23T11:15:48;101613.34;;;24.56
45565;BMP280;31280;40.408;17.282;2022-09-23T11:24:14;101609.16;;;25.18
45565;BMP280;31280;40.408;17.282;2022-09-23T11:27:06;101605.03;;;25.44
45565;BMP280;31280;40.408;17.282;2022-09-23T11:38:10;101616.88;;;25.66
45565;BMP280;31280;40.408;17.282;2022-09-23T11:40:39;101617.34;;;25.59
45565;BMP280;31280;40.408;17.282;2022-09-23T11:43:25;101618.00;;;25.32
45565;BMP280;31280;40.408;17.282;2022-09-23T11:51:27;101609.88;;;25.97
45565;BMP280;31280;40.408;17.282;2022-09-23T11:53:58;101604.63;;;25.88
45565;BMP280;31280;40.408;17.282;2022-09-23T11:56:29;101609.38;;;26.15
45565;BMP280;31280;40.408;17.282;2022-09-23T12:01:33;101621.72;;;26.57
45565;BMP280;31280;40.408;17.282;2022-09-23T12:06:49;101607.63;;;25.85
45565;BMP280;31280;40.408;17.282;2022-09-23T12:23:01;101620.88;;;26.83
45565;BMP280;31280;40.408;17.282;2022-09-23T12:28:31;101613.06;;;26.87
45565;BMP280;31280;40.408;17.282;2022-09-23T12:30:59;101601.38;;;27.16
45565;BMP280;31280;40.408;17.282;2022-09-23T12:33:32;101607.03;;;27.39
45565;BMP280;31280;40.408;17.282;2022-09-23T12:36:04;101603.13;;;27.64
45565;BMP280;31280;40.408;17.282;2022-09-23T12:40:59;101599.59;;;28.68
45565;BMP280;31280;40.408;17.282;2022-09-23T12:43:28;101614.72;;;28.73
45565;BMP280;31280;40.408;17.282;2022-09-23T12:46:22;101605.53;;;29.37
45565;BMP280;31280;40.408;17.282;2022-09-23T12:51:24;101603.50;;;29.69
45565;BMP280;31280;40.408;17.282;2022-09-23T13:01:24;101602.78;;;29.01
45565;BMP280;31280;40.408;17.282;2022-09-23T13:03:53;101595.81;;;29.44
45565;BMP280;31280;40.408;17.282;2022-09-23T13:09:22;101595.69;;;30.62
45565;BMP280;31280;40.408;17.282;2022-09-23T13:11:51;101595.25;;;30.83
45565;BMP280;31280;40.408;17.282;2022-09-23T13:14:21;101592.09;;;30.16
45565;BMP280;31280;40.408;17.282;2022-09-23T13:16:48;101592.50;;;29.76
45565;BMP280;31280;40.408;17.282;2022-09-23T13:27:14;101573.19;;;30.98
45565;BMP280;31280;40.408;17.282;2022-09-23T13:32:29;101582.06;;;30.96
45565;BMP280;31280;40.408;17.282;2022-09-23T13:35:02;101585.22;;;30.17
45565;BMP280;31280;40.408;17.282;2022-09-23T13:37:44;101593.94;;;30.97
45565;BMP280;31280;40.408;17.282;2022-09-23T13:40:18;101589.41;;;30.36
45565;BMP280;31280;40.408;17.282;2022-09-23T13:42:48;101584.50;;;30.54
45565;BMP280;31280;40.408;17.282;2022-09-23T13:45:18;101575.47;;;31.07
45565;BMP280;31280;40.408;17.282;2022-09-23T13:47:47;101568.09;;;31.29
45565;BMP280;31280;40.408;17.282;2022-09-23T13:50:18;101578.38;;;30.18
45565;BMP280;31280;40.408;17.282;2022-09-23T13:52:45;101570.00;;;29.92
45565;BMP280;31280;40.408;17.282;2022-09-23T13:55:34;101562.03;;;30.40
45565;BMP280;31280;40.408;17.282;2022-09-23T13:58:22;101569.91;;;30.74
45565;BMP280;31280;40.408;17.282;2022-09-23T14:00:51;101579.47;;;30.15
45565;BMP280;31280;40.408;17.282;2022-09-23T14:03:25;101576.88;;;30.17
45565;BMP280;31280;40.408;17.282;2022-09-23T14:05:53;101572.19;;;30.24
45565;BMP280;31280;40.408;17.282;2022-09-23T14:08:20;101570.44;;;30.60
45565;BMP280;31280;40.408;17.282;2022-09-23T14:10:46;101577.75;;;30.24
45565;BMP280;31280;40.408;17.282;2022-09-23T14:13:21;101581.78;;;30.11
45565;BMP280;31280;40.408;17.282;2022-09-23T14:15:49;101581.81;;;30.49
45565;BMP280;31280;40.408;17.282;2022-09-23T14:18:38;101569.41;;;30.50
45565;BMP280;31280;40.408;17.282;2022-09-23T14:21:05;101575.34;;;30.92
45565;BMP280;31280;40.408;17.282;2022-09-23T14:23:50;101578.31;;;30.94
45565;BMP280;31280;40.408;17.282;2022-09-23T14:26:17;101576.44;;;30.76
45565;BMP280;31280;40.408;17.282;2022-09-23T14:28:43;101577.72;;;30.12
45565;BMP280;31280;40.408;17.282;2022-09-23T14:31:09;101580.19;;;30.53
45565;BMP280;31280;40.408;17.282;2022-09-23T14:33:40;101581.78;;;29.98
45565;BMP280;31280;40.408;17.282;2022-09-23T14:36:12;101587.97;;;29.29
45565;BMP280;31280;40.408;17.282;2022-09-23T14:39:03;101569.00;;;28.97
45565;BMP280;31280;40.408;17.282;2022-09-23T14:41:34;101572.75;;;28.58
45565;BMP280;31280;40.408;17.282;2022-09-23T14:44:01;101564.88;;;27.91
45565;BMP280;31280;40.408;17.282;2022-09-23T14:46:30;101567.03;;;28.04
45565;BMP280;31280;40.408;17.282;2022-09-23T14:49:05;101562.91;;;27.86
45565;BMP280;31280;40.408;17.282;2022-09-23T14:56:54;101576.47;;;26.49
45565;BMP280;31280;40.408;17.282;2022-09-23T15:01:51;101577.75;;;26.27
45565;BMP280;31280;40.408;17.282;2022-09-23T15:04:29;101582.78;;;25.90
45565;BMP280;31280;40.408;17.282;2022-09-23T15:06:58;101572.66;;;25.55
45565;BMP280;31280;40.408;17.282;2022-09-23T15:09:39;101582.59;;;25.20
45565;BMP280;31280;40.408;17.282;2022-09-23T15:12:16;101563.50;;;25.06
45565;BMP280;31280;40.408;17.282;2022-09-23T15:14:54;101575.22;;;25.01
45565;BMP280;31280;40.408;17.282;2022-09-23T15:17:30;101577.28;;;25.06
45565;BMP280;31280;40.408;17.282;2022-09-23T15:20:02;101583.78;;;25.03
45565;BMP280;31280;40.408;17.282;2022-09-23T15:22:29;101588.91;;;24.79
45565;BMP280;31280;40.408;17.282;2022-09-23T15:30:30;101592.84;;;24.32
45565;BMP280;31280;40.408;17.282;2022-09-23T15:32:56;101592.84;;;24.32
45565;BMP280;31280;40.408;17.282;2022-09-23T15:35:23;101591.94;;;24.15
45565;BMP280;31280;40.408;17.282;2022-09-23T15:37:55;101590.84;;;23.77
45565;BMP280;31280;40.408;17.282;2022-09-23T15:40:29;101587.44;;;23.68
45565;BMP280;31280;40.408;17.282;2022-09-23T15:42:57;101594.66;;;23.40
45565;BMP280;31280;40.408;17.282;2022-09-23T15:45:34;101592.44;;;23.64
45565;BMP280;31280;40.408;17.282;2022-09-23T15:48:04;101568.66;;;23.41
45565;BMP280;31280;40.408;17.282;2022-09-23T15:50:35;101589.69;;;23.44
45565;BMP280;31280;40.408;17.282;2022-09-23T15:53:01;101593.00;;;23.48
45565;BMP280;31280;40.408;17.282;2022-09-23T15:55:27;101597.91;;;23.39
45565;BMP280;31280;40.408;17.282;2022-09-23T15:57:53;101597.38;;;23.21
45565;BMP280;31280;40.408;17.282;2022-09-23T16:00:19;101597.31;;;23.15
45565;BMP280;31280;40.408;17.282;2022-09-23T16:02:47;101587.22;;;23.07
45565;BMP280;31280;40.408;17.282;2022-09-23T16:05:18;101598.22;;;23.07
45565;BMP280;31280;40.408;17.282;2022-09-23T16:07:46;101603.16;;;23.03
45565;BMP280;31280;40.408;17.282;2022-09-23T16:10:13;101600.34;;;22.98
45565;BMP280;31280;40.408;17.282;2022-09-23T16:12:40;101600.59;;;22.99
45565;BMP280;31280;40.408;17.282;2022-09-23T16:15:19;101604.06;;;22.80
45565;BMP280;31280;40.408;17.282;2022-09-23T16:17:45;101602.09;;;22.67
45565;BMP280;31280;40.408;17.282;2022-09-23T16:20:12;101610.84;;;22.65
45565;BMP280;31280;40.408;17.282;2022-09-23T16:22:58;101611.03;;;22.62
45565;BMP280;31280;40.408;17.282;2022-09-23T16:25:26;101614.34;;;22.51
45565;BMP280;31280;40.408;17.282;2022-09-23T16:27:54;101586.59;;;22.35
45565;BMP280;31280;40.408;17.282;2022-09-23T16:30:27;101610.66;;;22.26
45565;BMP280;31280;40.408;17.282;2022-09-23T16:32:53;101613.84;;;22.24
45565;BMP280;31280;40.408;17.282;2022-09-23T16:35:24;101611.56;;;22.09
45565;BMP280;31280;40.408;17.282;2022-09-23T16:37:51;101611.19;;;22.01
45565;BMP280;31280;40.408;17.282;2022-09-23T16:40:20;101616.41;;;21.99